Terminal Aerodrome Forecast
Issued by NWS

Home | Current Version | Previous Version | Text Only | Print | Product List | Glossary On
Versions: 1 2 3 4 5 6 7 8 9 10 11 12 13 14 15 16 17 18 19 20 21 22
000
FTUS46 KOTX 311913 AAA
TAFMWH
TAF AMD
KMWH 311913Z 3119/0118 VRB03KT 3SM -RA BR BKN007 OVC070
      TEMPO 3119/3122 2SM -RA BR BKN005 OVC070
     FM010100 19005KT P6SM SCT050 BKN120
     FM010700 36004KT 4SM BR SCT007 BKN120
     FM011200 34004KT 3SM BR OVC007=

USA.gov is the U.S. government's official web portal to all federal, state and local government web resources and services.